createdAt,value
2022-10-16T00:02:31.829Z,26.30
2022-10-16T00:05:18.841Z,25.27
2022-10-16T00:07:51.897Z,23.35
2022-10-16T00:10:38.838Z,23.60
2022-10-16T00:13:12.901Z,24.27
2022-10-16T00:16:02.821Z,24.35
2022-10-16T00:18:38.134Z,24.08
2022-10-16T00:21:28.829Z,23.05
2022-10-16T00:24:19.925Z,22.48
2022-10-16T00:27:06.833Z,23.73
2022-10-16T00:29:39.962Z,23.65
2022-10-16T00:32:28.125Z,23.95
2022-10-16T00:35:01.168Z,25.25
2022-10-16T00:37:47.841Z,23.50
2022-10-16T00:40:20.909Z,23.92
2022-10-16T00:43:07.873Z,22.95
2022-10-16T00:45:40.925Z,23.98
2022-10-16T00:48:30.837Z,24.42
2022-10-16T00:51:12.864Z,24.23
2022-10-16T00:54:06.842Z,24.08
2022-10-16T00:56:53.865Z,24.10
2022-10-16T00:59:31.943Z,23.88
2022-10-16T01:02:21.861Z,24.25
2022-10-16T01:04:59.504Z,24.20
2022-10-16T01:08:01.869Z,23.35
2022-10-16T01:10:43.946Z,25.45
2022-10-16T01:13:45.857Z,24.67
2022-10-16T01:16:33.851Z,24.08
2022-10-16T01:19:33.855Z,25.42
2022-10-16T01:22:20.878Z,24.83
2022-10-16T01:24:56.975Z,23.65
2022-10-16T01:27:47.844Z,26.08
2022-10-16T01:30:32.898Z,25.48
2022-10-16T01:33:41.912Z,23.55
2022-10-16T01:36:40.863Z,24.75
2022-10-16T01:39:38.866Z,24.58
2022-10-16T01:42:34.890Z,23.73
2022-10-16T01:45:12.305Z,24.95
2022-10-16T01:48:00.887Z,24.10
2022-10-16T01:50:35.175Z,25.45
2022-10-16T01:53:23.873Z,26.52
2022-10-16T01:55:59.990Z,25.35
2022-10-16T01:58:52.859Z,26.17
2022-10-16T02:01:32.962Z,24.25
2022-10-16T02:04:26.887Z,24.52
2022-10-16T02:07:00.974Z,25.20
2022-10-16T02:09:47.883Z,24.60
2022-10-16T02:12:40.882Z,25.25
2022-10-16T02:15:27.888Z,25.95
2022-10-16T02:18:01.163Z,24.27
2022-10-16T02:21:06.889Z,23.50
2022-10-16T02:24:01.852Z,23.38
2022-10-16T02:27:02.900Z,24.80
2022-10-16T02:29:57.892Z,24.95
2022-10-16T02:32:34.958Z,24.33
2022-10-16T02:35:34.898Z,24.67
2022-10-16T02:38:30.903Z,22.52
2022-10-16T02:41:17.918Z,25.27
2022-10-16T02:43:50.979Z,23.35
2022-10-16T02:46:37.926Z,23.80
2022-10-16T02:49:17.063Z,24.73
2022-10-16T02:52:03.901Z,24.60
2022-10-16T02:54:36.980Z,23.02
2022-10-16T02:57:24.169Z,24.00
2022-10-16T02:59:58.048Z,24.70
2022-10-16T03:02:44.914Z,23.08
2022-10-16T03:05:18.017Z,23.83
2022-10-16T03:08:07.909Z,23.48
2022-10-16T03:10:40.984Z,23.02
2022-10-16T03:13:27.916Z,23.58
2022-10-16T03:16:07.900Z,23.67
2022-10-16T03:19:03.924Z,23.15
2022-10-16T03:21:50.918Z,23.42
2022-10-16T03:24:24.052Z,23.08
2022-10-16T03:27:12.321Z,25.05
2022-10-16T03:29:44.998Z,23.88
2022-10-16T03:32:33.087Z,22.40
2022-10-16T03:35:06.085Z,23.73
2022-10-16T03:37:52.914Z,22.20
2022-10-16T03:40:28.679Z,23.27
2022-10-16T03:45:59.939Z,23.60
2022-10-16T03:48:53.925Z,23.45
2022-10-16T03:51:43.949Z,23.52
2022-10-16T03:54:18.099Z,24.65
2022-10-16T03:57:04.916Z,24.10
2022-10-16T03:59:38.049Z,23.80
2022-10-16T04:02:27.924Z,24.23
2022-10-16T04:05:01.077Z,25.00
2022-10-16T04:07:47.932Z,25.35
2022-10-16T04:10:21.069Z,24.08
2022-10-16T04:13:08.052Z,26.90
2022-10-16T04:15:41.014Z,28.45
2022-10-16T04:18:27.954Z,29.33
2022-10-16T04:21:02.039Z,27.90
2022-10-16T04:23:49.973Z,24.95
2022-10-16T04:26:23.159Z,26.77
2022-10-16T04:29:09.941Z,25.60
2022-10-16T04:31:44.983Z,24.70
2022-10-16T04:34:31.934Z,26.50
2022-10-16T04:37:11.994Z,25.73
2022-10-16T04:40:06.979Z,25.08
2022-10-16T04:42:53.937Z,25.33
2022-10-16T04:45:34.012Z,26.25
2022-10-16T04:48:27.944Z,26.83
2022-10-16T04:51:14.981Z,28.15
2022-10-16T04:53:54.985Z,27.23
2022-10-16T04:56:54.004Z,27.45
2022-10-16T04:59:40.981Z,24.92
2022-10-16T05:02:14.065Z,24.92
2022-10-16T05:05:03.015Z,24.97
2022-10-16T05:07:52.987Z,24.07
2022-10-16T05:10:40.002Z,24.70
2022-10-16T05:13:13.074Z,27.63
2022-10-16T05:16:00.005Z,25.58
2022-10-16T05:18:39.995Z,23.45
2022-10-16T05:21:34.029Z,23.65
2022-10-16T05:24:28.013Z,25.17
2022-10-16T05:27:26.159Z,26.10
2022-10-16T05:30:14.005Z,26.33
2022-10-16T05:32:47.092Z,29.45
2022-10-16T05:35:34.003Z,29.70
2022-10-16T05:38:28.008Z,33.78
2022-10-16T05:41:22.000Z,29.85
2022-10-16T05:44:12.008Z,33.78
2022-10-16T05:46:52.009Z,35.22
2022-10-16T05:49:41.291Z,35.63
2022-10-16T05:52:15.077Z,32.72
2022-10-16T05:55:02.010Z,34.67
2022-10-16T05:57:42.022Z,33.60
2022-10-16T06:00:36.006Z,34.15
2022-10-16T06:03:22.999Z,33.13
2022-10-16T06:05:56.107Z,27.13
2022-10-16T06:08:43.013Z,25.60
2022-10-16T06:11:26.986Z,26.90
2022-10-16T06:14:17.011Z,25.23
2022-10-16T06:16:56.995Z,24.25
2022-10-16T06:19:44.010Z,25.05
2022-10-16T06:22:24.105Z,25.10
2022-10-16T06:25:18.019Z,24.15
2022-10-16T06:28:05.073Z,27.65
2022-10-16T06:30:38.110Z,26.77
2022-10-16T06:33:25.006Z,25.27
2022-10-16T06:35:58.105Z,25.88
2022-10-16T06:38:50.901Z,26.27
2022-10-16T06:41:38.067Z,25.42
2022-10-16T06:44:24.997Z,27.67
2022-10-16T06:46:58.128Z,28.50
2022-10-16T06:49:51.767Z,27.88
2022-10-16T06:52:27.433Z,26.75
2022-10-16T06:55:14.061Z,26.05
2022-10-16T06:57:47.121Z,27.33
2022-10-16T07:00:34.050Z,27.60
2022-10-16T07:03:14.060Z,26.00
2022-10-16T07:06:00.996Z,28.00
2022-10-16T07:08:40.985Z,26.58
2022-10-16T07:11:39.083Z,26.73
2022-10-16T07:14:28.070Z,27.85
2022-10-16T07:17:01.136Z,27.33
2022-10-16T07:19:48.052Z,26.13
2022-10-16T07:22:28.252Z,24.05
2022-10-16T07:25:16.141Z,25.10
2022-10-16T07:27:49.118Z,23.13
2022-10-16T07:30:36.047Z,24.88
2022-10-16T07:33:16.067Z,28.88
2022-10-16T07:36:15.185Z,24.52
2022-10-16T07:39:03.091Z,24.98
2022-10-16T07:41:44.100Z,23.35
2022-10-16T07:44:32.902Z,22.88
2022-10-16T07:47:13.081Z,22.85
2022-10-16T07:50:07.057Z,23.15
2022-10-16T07:52:54.101Z,23.30
2022-10-16T07:55:27.121Z,22.92
2022-10-16T07:58:14.060Z,22.98
2022-10-16T08:00:54.248Z,24.45
2022-10-16T08:03:41.087Z,23.35
2022-10-16T08:06:26.703Z,24.38
2022-10-16T08:09:23.081Z,24.33
2022-10-16T08:12:10.115Z,24.27
2022-10-16T08:14:45.671Z,21.20
2022-10-16T08:17:34.053Z,24.08
2022-10-16T08:20:07.207Z,24.63
2022-10-16T08:22:54.057Z,22.58
2022-10-16T08:25:37.096Z,23.35
2022-10-16T08:28:24.189Z,23.75
2022-10-16T08:31:05.087Z,22.70
2022-10-16T08:34:00.094Z,22.70
2022-10-16T08:36:54.107Z,23.90
2022-10-16T08:39:43.091Z,23.52
2022-10-16T08:42:53.092Z,23.48
2022-10-16T08:46:04.149Z,22.73
2022-10-16T08:49:05.080Z,23.35
2022-10-16T08:52:01.138Z,21.70
2022-10-16T08:54:55.094Z,21.15
2022-10-16T08:57:32.526Z,24.13
2022-10-16T09:00:21.126Z,23.38
2022-10-16T09:03:13.465Z,22.52
2022-10-16T09:06:13.079Z,24.35
2022-10-16T09:08:52.188Z,20.52
2022-10-16T09:11:57.126Z,23.67
2022-10-16T09:14:37.568Z,21.27
2022-10-16T09:17:38.121Z,23.02
2022-10-16T09:20:47.131Z,22.13
2022-10-16T09:23:43.129Z,22.15
2022-10-16T09:26:30.119Z,22.48
2022-10-16T09:29:03.234Z,23.92
2022-10-16T09:31:51.130Z,22.02
2022-10-16T09:34:51.128Z,21.85
2022-10-16T09:37:46.109Z,22.35
2022-10-16T09:40:36.120Z,22.27
2022-10-16T09:43:13.481Z,22.48
2022-10-16T09:46:09.132Z,21.60
2022-10-16T09:48:51.183Z,24.17
2022-10-16T09:51:44.119Z,24.02
2022-10-16T09:54:17.178Z,23.20
2022-10-16T09:57:15.132Z,22.85
2022-10-16T10:00:11.129Z,21.70
2022-10-16T10:03:06.159Z,21.95
2022-10-16T10:05:58.540Z,23.40
2022-10-16T10:08:34.212Z,22.80
2022-10-16T10:11:21.123Z,23.15
2022-10-16T10:14:01.129Z,23.00
2022-10-16T10:16:57.458Z,22.15
2022-10-16T10:19:57.129Z,23.75
2022-10-16T10:22:52.221Z,23.80
2022-10-16T10:26:02.113Z,22.70
2022-10-16T10:28:38.256Z,22.27
2022-10-16T10:31:32.120Z,22.05
2022-10-16T10:34:34.120Z,21.55
2022-10-16T10:37:41.180Z,23.67
2022-10-16T10:40:56.123Z,23.25
2022-10-16T10:43:45.188Z,21.63
2022-10-16T10:46:30.996Z,21.40
2022-10-16T10:49:18.153Z,23.00
2022-10-16T10:52:15.199Z,23.42
2022-10-16T10:55:22.134Z,21.88
2022-10-16T10:58:16.097Z,21.27
2022-10-16T11:01:29.205Z,22.58
2022-10-16T11:04:26.146Z,22.77
2022-10-16T11:07:30.371Z,22.90
2022-10-16T11:10:35.454Z,21.23
2022-10-16T11:14:01.188Z,20.15
2022-10-16T11:16:44.151Z,20.70
2022-10-16T11:19:52.126Z,23.35
2022-10-16T11:22:53.186Z,21.48
2022-10-16T11:25:48.147Z,20.60
2022-10-16T11:28:41.260Z,21.55
2022-10-16T11:31:39.233Z,21.15
2022-10-16T11:34:30.735Z,20.42
2022-10-16T11:37:42.174Z,20.75
2022-10-16T11:40:48.154Z,20.27
2022-10-16T11:43:57.168Z,25.23
2022-10-16T11:46:59.428Z,25.95
2022-10-16T11:50:00.155Z,21.60
2022-10-16T11:53:08.259Z,24.42
2022-10-16T11:55:55.176Z,24.83
2022-10-16T11:58:43.242Z,26.00
2022-10-16T12:01:41.173Z,21.30
2022-10-16T12:04:35.328Z,21.30
2022-10-16T12:07:40.171Z,23.20
2022-10-16T12:10:47.333Z,22.95
2022-10-16T12:13:41.168Z,24.90
2022-10-16T12:16:20.273Z,21.33
2022-10-16T12:19:23.192Z,21.70
2022-10-16T12:22:04.185Z,21.25
2022-10-16T12:24:58.165Z,22.55
2022-10-16T12:27:53.189Z,20.58
2022-10-16T12:30:43.186Z,19.70
2022-10-16T12:33:45.209Z,20.88
2022-10-16T12:36:49.181Z,19.77
2022-10-16T12:39:36.201Z,19.95
2022-10-16T12:42:12.250Z,20.63
2022-10-16T12:44:59.196Z,21.60
2022-10-16T12:47:38.292Z,19.88
2022-10-16T12:50:39.250Z,22.42
2022-10-16T12:53:27.380Z,21.48
2022-10-16T12:56:23.187Z,23.52
2022-10-16T12:59:03.308Z,22.58
2022-10-16T13:02:26.239Z,25.08
2022-10-16T13:05:17.212Z,23.92
2022-10-16T13:08:26.231Z,20.48
2022-10-16T13:11:25.223Z,19.13
2022-10-16T13:14:04.292Z,22.10
2022-10-16T13:17:10.208Z,20.90
2022-10-16T13:19:58.303Z,19.23
2022-10-16T13:23:04.193Z,20.00
2022-10-16T13:25:59.339Z,20.85
2022-10-16T13:28:47.268Z,18.52
2022-10-16T13:31:34.224Z,17.95
2022-10-16T13:34:25.215Z,21.48
2022-10-16T13:37:07.223Z,17.75
2022-10-16T13:39:54.216Z,19.83
2022-10-16T13:42:41.219Z,18.48
2022-10-16T13:45:30.222Z,17.88
2022-10-16T13:48:21.217Z,18.10
2022-10-16T13:51:14.303Z,19.60
2022-10-16T13:53:48.306Z,19.17
2022-10-16T13:56:38.241Z,18.02
2022-10-16T13:59:21.247Z,18.30
2022-10-16T14:02:25.519Z,17.17
2022-10-16T14:05:17.249Z,18.60
2022-10-16T14:07:57.227Z,20.73
2022-10-16T14:10:44.254Z,19.42
2022-10-16T14:13:26.316Z,18.85
2022-10-16T14:16:23.252Z,18.08
2022-10-16T14:19:14.245Z,17.10
2022-10-16T14:22:02.244Z,17.10
2022-10-16T14:24:52.240Z,17.42
2022-10-16T14:27:51.324Z,16.73
2022-10-16T14:30:48.253Z,16.65
2022-10-16T14:33:38.248Z,17.23
2022-10-16T14:36:21.647Z,17.75
2022-10-16T14:39:14.291Z,19.33
2022-10-16T14:41:56.326Z,17.23
2022-10-16T14:44:43.275Z,16.98
2022-10-16T14:47:23.463Z,15.00
2022-10-16T14:50:10.259Z,16.88
2022-10-16T14:52:44.504Z,15.88
2022-10-16T14:55:32.265Z,18.33
2022-10-16T14:58:05.346Z,17.13
2022-10-16T15:00:52.253Z,16.20
2022-10-16T15:03:25.425Z,17.75
2022-10-16T15:06:18.267Z,17.77
2022-10-16T15:08:51.359Z,16.13
2022-10-16T15:11:40.265Z,16.63
2022-10-16T15:14:20.262Z,16.27
2022-10-16T15:17:16.386Z,17.85
2022-10-16T15:20:06.259Z,17.30
2022-10-16T15:22:39.372Z,17.98
2022-10-16T15:25:40.284Z,18.02
2022-10-16T15:28:13.387Z,19.80
2022-10-16T15:31:02.291Z,16.95
2022-10-16T15:33:42.270Z,17.15
2022-10-16T15:36:44.328Z,20.17
2022-10-16T15:39:40.564Z,19.40
2022-10-16T15:42:35.283Z,20.83
2022-10-16T15:45:22.277Z,18.20
2022-10-16T15:47:55.379Z,19.33
2022-10-16T15:53:23.363Z,18.88
2022-10-16T15:56:11.311Z,19.45
2022-10-16T15:58:44.426Z,21.70
2022-10-16T16:01:31.329Z,21.67
2022-10-16T16:04:15.446Z,20.52
2022-10-16T16:07:14.319Z,21.83
2022-10-16T16:09:54.305Z,21.10
2022-10-16T16:12:48.293Z,20.02
2022-10-16T16:15:35.325Z,20.38
2022-10-16T16:18:17.306Z,20.08
2022-10-16T16:21:13.623Z,19.48
2022-10-16T16:24:00.304Z,18.73
2022-10-16T16:26:43.320Z,20.52
2022-10-16T16:29:30.299Z,22.40
2022-10-16T16:32:03.402Z,24.05
2022-10-16T16:34:50.311Z,25.73
2022-10-16T16:37:30.642Z,29.80
2022-10-16T16:40:24.310Z,36.97
2022-10-16T16:43:11.331Z,33.33
2022-10-16T16:45:51.321Z,30.00
2022-10-16T16:48:39.321Z,28.08
2022-10-16T16:51:23.303Z,26.27
2022-10-16T16:54:10.295Z,26.10
2022-10-16T16:56:46.827Z,25.27
2022-10-16T16:59:33.342Z,23.85
2022-10-16T17:02:14.356Z,22.10
2022-10-16T17:05:08.313Z,21.70
2022-10-16T17:08:02.329Z,22.50
2022-10-16T17:10:52.335Z,21.73
2022-10-16T17:13:33.353Z,21.52
2022-10-16T17:16:27.346Z,24.00
2022-10-16T17:19:15.353Z,23.75
2022-10-16T17:21:49.468Z,20.83
2022-10-16T17:24:36.344Z,22.52
2022-10-16T17:27:10.137Z,23.30
2022-10-16T17:29:59.351Z,23.38
2022-10-16T17:32:32.517Z,21.45
2022-10-16T17:35:19.338Z,22.17
2022-10-16T17:37:52.483Z,23.25
2022-10-16T17:40:39.350Z,21.33
2022-10-16T17:43:13.414Z,23.70
2022-10-16T17:46:00.368Z,22.15
2022-10-16T17:48:33.442Z,21.65
2022-10-16T17:51:22.373Z,19.73
2022-10-16T17:54:04.354Z,21.67
2022-10-16T17:56:51.356Z,24.70
2022-10-16T17:59:31.373Z,21.05
2022-10-16T18:02:18.371Z,20.08
2022-10-16T18:04:51.990Z,25.67
2022-10-16T18:07:38.439Z,29.85
2022-10-16T18:10:12.600Z,31.65
2022-10-16T18:12:59.366Z,26.60
2022-10-16T18:15:32.443Z,25.73
2022-10-16T18:18:19.370Z,25.80
2022-10-16T18:20:59.379Z,25.75
2022-10-16T18:23:51.957Z,24.23
2022-10-16T18:26:33.373Z,29.45
2022-10-16T18:29:27.366Z,29.45
2022-10-16T18:32:14.374Z,26.67
2022-10-16T18:34:54.367Z,25.58
2022-10-16T18:37:51.456Z,25.40
2022-10-16T18:40:45.398Z,25.13
2022-10-16T18:43:32.388Z,24.10
2022-10-16T18:46:08.469Z,24.17
2022-10-16T18:48:56.378Z,22.15
2022-10-16T18:51:45.381Z,20.77
2022-10-16T18:54:39.373Z,20.23
2022-10-16T18:57:33.390Z,21.90
2022-10-16T19:00:20.373Z,20.75
2022-10-16T19:02:53.461Z,21.60
2022-10-16T19:05:40.416Z,22.60
2022-10-16T19:08:13.674Z,24.10
2022-10-16T19:11:00.384Z,21.40
2022-10-16T19:13:33.475Z,20.55
2022-10-16T19:16:26.404Z,21.27
2022-10-16T19:19:02.486Z,20.65
2022-10-16T19:21:50.382Z,22.15
2022-10-16T19:24:30.413Z,21.75
2022-10-16T19:27:17.400Z,21.23
2022-10-16T19:29:57.392Z,22.75
2022-10-16T19:32:56.500Z,32.65
2022-10-16T19:35:43.410Z,52.42
2022-10-16T19:38:16.472Z,39.67
2022-10-16T19:41:03.441Z,33.65
2022-10-16T19:43:36.606Z,33.65
2022-10-16T19:46:25.413Z,31.92
2022-10-16T19:49:13.419Z,31.92
2022-10-16T19:52:07.412Z,31.00
2022-10-16T19:54:55.417Z,29.10
2022-10-16T19:57:28.552Z,28.17
2022-10-16T20:00:16.409Z,26.80
2022-10-16T20:02:49.501Z,28.13
2022-10-16T20:05:36.415Z,29.63
2022-10-16T20:08:09.487Z,27.23
2022-10-16T20:10:58.418Z,25.60
2022-10-16T20:13:31.531Z,25.67
2022-10-16T20:16:19.414Z,24.95
2022-10-16T20:18:54.515Z,25.02
2022-10-16T20:21:41.427Z,24.00
2022-10-16T20:24:22.421Z,23.40
2022-10-16T20:27:09.428Z,23.85
2022-10-16T20:29:42.504Z,23.45
2022-10-16T20:32:29.409Z,24.40
2022-10-16T20:35:16.439Z,24.27
2022-10-16T20:38:03.435Z,23.10
2022-10-16T20:40:43.702Z,24.10
2022-10-16T20:43:30.491Z,23.52
2022-10-16T20:46:13.548Z,23.60
2022-10-16T20:49:10.712Z,25.08
2022-10-16T20:51:49.995Z,23.42
2022-10-16T20:54:36.453Z,22.98
2022-10-16T20:57:16.447Z,23.88
2022-10-16T21:00:10.459Z,22.00
2022-10-16T21:02:58.471Z,24.30
2022-10-16T21:05:34.431Z,23.30
2022-10-16T21:08:21.463Z,23.17
2022-10-16T21:10:54.508Z,24.48
2022-10-16T21:13:41.459Z,25.88
2022-10-16T21:16:15.534Z,29.88
2022-10-16T21:19:02.433Z,29.05
2022-10-16T21:21:38.333Z,31.75
2022-10-16T21:24:25.459Z,29.33
2022-10-16T21:26:58.615Z,25.90
2022-10-16T21:32:23.533Z,25.83
2022-10-16T21:35:11.446Z,26.98
2022-10-16T21:37:44.518Z,26.50
2022-10-16T21:40:31.468Z,29.20
2022-10-16T21:43:11.464Z,28.50
2022-10-16T21:46:05.455Z,28.75
2022-10-16T21:48:52.474Z,27.80
2022-10-16T21:51:25.526Z,28.38
2022-10-16T21:54:15.470Z,26.10
2022-10-16T21:56:55.483Z,25.23
2022-10-16T21:59:49.464Z,22.90
2022-10-16T22:02:36.460Z,23.17
2022-10-16T22:05:09.634Z,23.33
2022-10-16T22:07:56.470Z,23.85
2022-10-16T22:10:29.534Z,24.88
2022-10-16T22:13:16.491Z,25.67
2022-10-16T22:15:56.087Z,24.52
2022-10-16T22:18:43.493Z,24.45
2022-10-16T22:21:16.554Z,23.25
2022-10-16T22:24:05.459Z,24.25
2022-10-16T22:26:46.480Z,25.45
2022-10-16T22:29:40.483Z,25.45
2022-10-16T22:32:27.482Z,23.75
2022-10-16T22:35:00.541Z,24.60
2022-10-16T22:37:54.494Z,25.50
2022-10-16T22:40:49.487Z,22.83
2022-10-16T22:43:36.482Z,24.05
2022-10-16T22:46:11.570Z,21.90
2022-10-16T22:48:58.517Z,23.27
2022-10-16T22:51:34.039Z,22.90
2022-10-16T22:54:20.497Z,22.90
2022-10-16T22:57:00.501Z,23.38
2022-10-16T22:59:54.493Z,22.33
2022-10-16T23:02:41.523Z,21.77
2022-10-16T23:05:22.497Z,22.45
2022-10-16T23:08:16.493Z,23.55
2022-10-16T23:11:07.514Z,24.00
2022-10-16T23:13:45.769Z,23.50
2022-10-16T23:16:32.515Z,22.83
2022-10-16T23:19:05.605Z,21.73
2022-10-16T23:21:52.505Z,21.40
2022-10-16T23:24:25.591Z,22.38
2022-10-16T23:27:12.496Z,23.67
2022-10-16T23:29:45.692Z,24.88
2022-10-16T23:32:32.514Z,23.58
2022-10-16T23:35:12.486Z,23.27
2022-10-16T23:38:06.508Z,24.02
2022-10-16T23:40:53.512Z,21.88
2022-10-16T23:43:26.594Z,23.40
2022-10-16T23:46:15.630Z,23.25
2022-10-16T23:48:48.561Z,23.77
2022-10-16T23:51:35.537Z,24.42
2022-10-16T23:54:08.586Z,24.02
2022-10-16T23:56:55.523Z,22.67
2022-10-16T23:59:35.515Z,23.27
